sensor_id;sensor_type;location;lat;lon;timestamp;temperature;humidity
70079;DHT22;57451;52.496;13.456;2023-03-08T00:00:59;1.70;72.40
70079;DHT22;57451;52.496;13.456;2023-03-08T00:03:26;1.60;72.70
70079;DHT22;57451;52.496;13.456;2023-03-08T00:05:55;1.60;73.10
70079;DHT22;57451;52.496;13.456;2023-03-08T00:08:22;1.60;73.00
70079;DHT22;57451;52.496;13.456;2023-03-08T00:10:49;1.70;72.90
70079;DHT22;57451;52.496;13.456;2023-03-08T00:13:17;1.70;72.50
70079;DHT22;57451;52.496;13.456;2023-03-08T00:15:44;1.60;72.80
70079;DHT22;57451;52.496;13.456;2023-03-08T00:18:11;1.60;72.70
70079;DHT22;57451;52.496;13.456;2023-03-08T00:20:38;1.60;72.80
70079;DHT22;57451;52.496;13.456;2023-03-08T00:23:08;1.50;72.80
70079;DHT22;57451;52.496;13.456;2023-03-08T00:25:36;1.40;73.20
70079;DHT22;57451;52.496;13.456;2023-03-08T00:28:03;1.40;73.50
70079;DHT22;57451;52.496;13.456;2023-03-08T00:30:30;1.40;73.40
70079;DHT22;57451;52.496;13.456;2023-03-08T00:32:57;1.40;73.30
70079;DHT22;57451;52.496;13.456;2023-03-08T00:35:25;1.40;73.40
70079;DHT22;57451;52.496;13.456;2023-03-08T00:37:52;1.30;73.50
70079;DHT22;57451;52.496;13.456;2023-03-08T00:40:20;1.30;73.30
70079;DHT22;57451;52.496;13.456;2023-03-08T00:42:48;1.30;73.80
70079;DHT22;57451;52.496;13.456;2023-03-08T00:45:15;1.30;73.70
70079;DHT22;57451;52.496;13.456;2023-03-08T00:47:42;1.30;73.60
70079;DHT22;57451;52.496;13.456;2023-03-08T00:50:10;1.30;73.60
70079;DHT22;57451;52.496;13.456;2023-03-08T00:52:37;1.20;73.70
70079;DHT22;57451;52.496;13.456;2023-03-08T00:55:05;1.20;73.70
70079;DHT22;57451;52.496;13.456;2023-03-08T00:57:34;1.20;73.70
70079;DHT22;57451;52.496;13.456;2023-03-08T01:00:01;1.20;73.70
70079;DHT22;57451;52.496;13.456;2023-03-08T01:02:31;1.20;73.70
70079;DHT22;57451;52.496;13.456;2023-03-08T01:04:59;1.20;74.10
70079;DHT22;57451;52.496;13.456;2023-03-08T01:07:26;1.10;74.00
70079;DHT22;57451;52.496;13.456;2023-03-08T01:09:54;1.10;74.20
70079;DHT22;57451;52.496;13.456;2023-03-08T01:12:22;1.10;74.00
70079;DHT22;57451;52.496;13.456;2023-03-08T01:14:53;1.10;74.10
70079;DHT22;57451;52.496;13.456;2023-03-08T01:17:20;1.10;73.90
70079;DHT22;57451;52.496;13.456;2023-03-08T01:19:47;1.10;74.10
70079;DHT22;57451;52.496;13.456;2023-03-08T01:22:17;1.10;74.40
70079;DHT22;57451;52.496;13.456;2023-03-08T01:24:44;1.00;74.50
70079;DHT22;57451;52.496;13.456;2023-03-08T01:27:12;1.00;74.60
70079;DHT22;57451;52.496;13.456;2023-03-08T01:29:40;0.90;74.80
70079;DHT22;57451;52.496;13.456;2023-03-08T01:32:08;0.90;75.10
70079;DHT22;57451;52.496;13.456;2023-03-08T01:34:36;0.90;75.40
70079;DHT22;57451;52.496;13.456;2023-03-08T01:37:04;0.80;75.60
70079;DHT22;57451;52.496;13.456;2023-03-08T01:39:32;0.80;75.80
70079;DHT22;57451;52.496;13.456;2023-03-08T01:42:02;0.70;76.00
70079;DHT22;57451;52.496;13.456;2023-03-08T01:44:48;0.70;76.20
70079;DHT22;57451;52.496;13.456;2023-03-08T01:47:18;0.70;76.50
70079;DHT22;57451;52.496;13.456;2023-03-08T01:50:08;0.60;76.80
70079;DHT22;57451;52.496;13.456;2023-03-08T01:52:40;0.60;76.90
70079;DHT22;57451;52.496;13.456;2023-03-08T01:55:10;0.60;77.30
70079;DHT22;57451;52.496;13.456;2023-03-08T01:57:40;0.60;77.30
70079;DHT22;57451;52.496;13.456;2023-03-08T02:00:12;0.60;77.10
70079;DHT22;57451;52.496;13.456;2023-03-08T02:02:46;0.60;77.40
70079;DHT22;57451;52.496;13.456;2023-03-08T02:05:15;0.60;77.10
70079;DHT22;57451;52.496;13.456;2023-03-08T02:07:45;0.60;77.10
70079;DHT22;57451;52.496;13.456;2023-03-08T02:10:13;0.70;77.10
70079;DHT22;57451;52.496;13.456;2023-03-08T02:12:41;0.60;77.40
70079;DHT22;57451;52.496;13.456;2023-03-08T02:15:12;0.50;77.70
70079;DHT22;57451;52.496;13.456;2023-03-08T02:17:43;0.60;77.70
70079;DHT22;57451;52.496;13.456;2023-03-08T02:20:14;0.60;77.70
70079;DHT22;57451;52.496;13.456;2023-03-08T02:22:44;0.60;77.50
70079;DHT22;57451;52.496;13.456;2023-03-08T02:25:13;0.60;77.10
70079;DHT22;57451;52.496;13.456;2023-03-08T02:27:40;0.70;76.80
70079;DHT22;57451;52.496;13.456;2023-03-08T02:30:09;0.60;76.80
70079;DHT22;57451;52.496;13.456;2023-03-08T02:32:37;0.60;77.00
70079;DHT22;57451;52.496;13.456;2023-03-08T02:35:05;0.50;77.40
70079;DHT22;57451;52.496;13.456;2023-03-08T02:37:33;0.50;77.40
70079;DHT22;57451;52.496;13.456;2023-03-08T02:40:04;0.50;77.50
70079;DHT22;57451;52.496;13.456;2023-03-08T02:42:32;0.40;77.90
70079;DHT22;57451;52.496;13.456;2023-03-08T02:44:59;0.40;78.10
70079;DHT22;57451;52.496;13.456;2023-03-08T02:47:26;0.40;78.50
70079;DHT22;57451;52.496;13.456;2023-03-08T02:49:53;0.50;78.00
70079;DHT22;57451;52.496;13.456;2023-03-08T02:52:21;0.50;77.90
70079;DHT22;57451;52.496;13.456;2023-03-08T02:54:50;0.40;78.00
70079;DHT22;57451;52.496;13.456;2023-03-08T02:57:18;0.50;77.90
70079;DHT22;57451;52.496;13.456;2023-03-08T02:59:46;0.50;77.90
70079;DHT22;57451;52.496;13.456;2023-03-08T03:02:14;0.40;78.20
70079;DHT22;57451;52.496;13.456;2023-03-08T03:04:41;0.40;78.40
70079;DHT22;57451;52.496;13.456;2023-03-08T03:07:08;0.40;78.20
70079;DHT22;57451;52.496;13.456;2023-03-08T03:09:37;0.40;78.20
70079;DHT22;57451;52.496;13.456;2023-03-08T03:12:04;0.40;78.10
70079;DHT22;57451;52.496;13.456;2023-03-08T03:14:36;0.40;78.10
70079;DHT22;57451;52.496;13.456;2023-03-08T03:17:03;0.40;78.30
70079;DHT22;57451;52.496;13.456;2023-03-08T03:19:30;0.30;78.50
70079;DHT22;57451;52.496;13.456;2023-03-08T03:21:57;0.30;78.60
70079;DHT22;57451;52.496;13.456;2023-03-08T03:24:25;0.30;78.60
70079;DHT22;57451;52.496;13.456;2023-03-08T03:26:56;0.40;78.70
70079;DHT22;57451;52.496;13.456;2023-03-08T03:29:26;0.40;78.70
70079;DHT22;57451;52.496;13.456;2023-03-08T03:32:06;0.40;78.40
70079;DHT22;57451;52.496;13.456;2023-03-08T03:34:34;0.40;78.40
70079;DHT22;57451;52.496;13.456;2023-03-08T03:37:02;0.40;78.40
70079;DHT22;57451;52.496;13.456;2023-03-08T03:39:29;0.30;78.50
70079;DHT22;57451;52.496;13.456;2023-03-08T03:42:01;0.40;78.50
70079;DHT22;57451;52.496;13.456;2023-03-08T03:44:29;0.30;78.40
70079;DHT22;57451;52.496;13.456;2023-03-08T03:46:57;0.40;78.50
70079;DHT22;57451;52.496;13.456;2023-03-08T03:49:28;0.30;78.80
70079;DHT22;57451;52.496;13.456;2023-03-08T03:51:55;0.30;78.80
70079;DHT22;57451;52.496;13.456;2023-03-08T03:54:27;0.40;78.50
70079;DHT22;57451;52.496;13.456;2023-03-08T03:56:58;0.40;78.50
70079;DHT22;57451;52.496;13.456;2023-03-08T03:59:30;0.40;78.20
70079;DHT22;57451;52.496;13.456;2023-03-08T04:01:59;0.50;78.30
70079;DHT22;57451;52.496;13.456;2023-03-08T04:04:49;0.50;78.10
70079;DHT22;57451;52.496;13.456;2023-03-08T04:07:19;0.40;78.20
70079;DHT22;57451;52.496;13.456;2023-03-08T04:09:55;0.50;78.10
70079;DHT22;57451;52.496;13.456;2023-03-08T04:12:23;0.50;77.70
70079;DHT22;57451;52.496;13.456;2023-03-08T04:14:52;0.40;78.20
70079;DHT22;57451;52.496;13.456;2023-03-08T04:17:20;0.50;78.00
70079;DHT22;57451;52.496;13.456;2023-03-08T04:19:54;0.60;77.70
70079;DHT22;57451;52.496;13.456;2023-03-08T04:22:21;0.60;77.10
70079;DHT22;57451;52.496;13.456;2023-03-08T04:24:52;0.60;77.30
70079;DHT22;57451;52.496;13.456;2023-03-08T04:27:29;0.60;77.00
70079;DHT22;57451;52.496;13.456;2023-03-08T04:29:56;0.60;76.80
70079;DHT22;57451;52.496;13.456;2023-03-08T04:32:23;0.60;76.60
70079;DHT22;57451;52.496;13.456;2023-03-08T04:34:57;0.60;76.70
70079;DHT22;57451;52.496;13.456;2023-03-08T04:37:26;0.60;76.40
70079;DHT22;57451;52.496;13.456;2023-03-08T04:40:00;0.60;76.60
70079;DHT22;57451;52.496;13.456;2023-03-08T04:42:29;0.60;76.60
70079;DHT22;57451;52.496;13.456;2023-03-08T04:44:56;0.70;76.50
70079;DHT22;57451;52.496;13.456;2023-03-08T04:47:25;0.80;76.40
70079;DHT22;57451;52.496;13.456;2023-03-08T04:49:52;0.80;76.00
70079;DHT22;57451;52.496;13.456;2023-03-08T04:52:21;0.80;75.90
70079;DHT22;57451;52.496;13.456;2023-03-08T04:54:49;0.80;75.40
70079;DHT22;57451;52.496;13.456;2023-03-08T04:57:22;0.70;75.60
70079;DHT22;57451;52.496;13.456;2023-03-08T04:59:53;0.70;75.50
70079;DHT22;57451;52.496;13.456;2023-03-08T05:02:21;0.70;75.40
70079;DHT22;57451;52.496;13.456;2023-03-08T05:04:49;0.70;75.20
70079;DHT22;57451;52.496;13.456;2023-03-08T05:07:16;0.60;75.10
70079;DHT22;57451;52.496;13.456;2023-03-08T05:09:46;0.60;75.20
70079;DHT22;57451;52.496;13.456;2023-03-08T05:12:13;0.60;75.20
70079;DHT22;57451;52.496;13.456;2023-03-08T05:14:53;0.60;75.20
70079;DHT22;57451;52.496;13.456;2023-03-08T05:17:24;0.60;75.00
70079;DHT22;57451;52.496;13.456;2023-03-08T05:19:51;0.70;74.60
70079;DHT22;57451;52.496;13.456;2023-03-08T05:22:24;0.70;74.60
70079;DHT22;57451;52.496;13.456;2023-03-08T05:24:56;0.70;74.60
70079;DHT22;57451;52.496;13.456;2023-03-08T05:27:23;0.70;74.30
70079;DHT22;57451;52.496;13.456;2023-03-08T05:29:52;0.60;74.30
70079;DHT22;57451;52.496;13.456;2023-03-08T05:32:19;0.60;74.30
70079;DHT22;57451;52.496;13.456;2023-03-08T05:34:47;0.60;74.50
70079;DHT22;57451;52.496;13.456;2023-03-08T05:37:23;0.50;74.70
70079;DHT22;57451;52.496;13.456;2023-03-08T05:39:57;0.50;74.90
70079;DHT22;57451;52.496;13.456;2023-03-08T05:42:24;0.50;74.90
70079;DHT22;57451;52.496;13.456;2023-03-08T05:44:54;0.50;74.70
70079;DHT22;57451;52.496;13.456;2023-03-08T05:47:26;0.50;74.80
70079;DHT22;57451;52.496;13.456;2023-03-08T05:49:56;0.50;75.00
70079;DHT22;57451;52.496;13.456;2023-03-08T05:52:23;0.40;74.70
70079;DHT22;57451;52.496;13.456;2023-03-08T05:54:51;0.40;75.10
70079;DHT22;57451;52.496;13.456;2023-03-08T05:57:20;0.40;75.20
70079;DHT22;57451;52.496;13.456;2023-03-08T05:59:49;0.40;75.40
70079;DHT22;57451;52.496;13.456;2023-03-08T06:02:20;0.40;75.10
70079;DHT22;57451;52.496;13.456;2023-03-08T06:04:50;0.40;75.10
70079;DHT22;57451;52.496;13.456;2023-03-08T06:07:20;0.40;75.10
70079;DHT22;57451;52.496;13.456;2023-03-08T06:10:00;0.40;75.20
70079;DHT22;57451;52.496;13.456;2023-03-08T06:12:29;0.30;75.40
70079;DHT22;57451;52.496;13.456;2023-03-08T06:15:00;0.30;75.40
70079;DHT22;57451;52.496;13.456;2023-03-08T06:17:32;0.30;75.70
70079;DHT22;57451;52.496;13.456;2023-03-08T06:20:00;0.30;75.50
70079;DHT22;57451;52.496;13.456;2023-03-08T06:22:28;0.30;75.50
70079;DHT22;57451;52.496;13.456;2023-03-08T06:24:55;0.40;75.60
70079;DHT22;57451;52.496;13.456;2023-03-08T06:27:30;0.40;75.90
70079;DHT22;57451;52.496;13.456;2023-03-08T06:30:01;0.30;75.90
70079;DHT22;57451;52.496;13.456;2023-03-08T06:32:30;0.30;76.40
70079;DHT22;57451;52.496;13.456;2023-03-08T06:34:59;0.30;76.40
70079;DHT22;57451;52.496;13.456;2023-03-08T06:37:31;0.30;76.30
70079;DHT22;57451;52.496;13.456;2023-03-08T06:39:59;0.30;76.30
70079;DHT22;57451;52.496;13.456;2023-03-08T06:42:31;0.30;76.60
70079;DHT22;57451;52.496;13.456;2023-03-08T06:45:09;0.30;76.60
70079;DHT22;57451;52.496;13.456;2023-03-08T06:47:37;0.40;76.50
70079;DHT22;57451;52.496;13.456;2023-03-08T06:50:04;0.40;76.30
70079;DHT22;57451;52.496;13.456;2023-03-08T06:52:32;0.40;76.40
70079;DHT22;57451;52.496;13.456;2023-03-08T06:55:05;0.60;76.30
70079;DHT22;57451;52.496;13.456;2023-03-08T06:57:34;0.60;76.10
70079;DHT22;57451;52.496;13.456;2023-03-08T07:00:01;0.70;75.80
70079;DHT22;57451;52.496;13.456;2023-03-08T07:02:30;0.70;75.50
70079;DHT22;57451;52.496;13.456;2023-03-08T07:04:57;0.80;75.30
70079;DHT22;57451;52.496;13.456;2023-03-08T07:07:24;0.80;75.30
70079;DHT22;57451;52.496;13.456;2023-03-08T07:09:51;0.80;75.30
70079;DHT22;57451;52.496;13.456;2023-03-08T07:12:19;0.90;75.00
70079;DHT22;57451;52.496;13.456;2023-03-08T07:14:47;0.90;74.90
70079;DHT22;57451;52.496;13.456;2023-03-08T07:17:14;1.00;74.80
70079;DHT22;57451;52.496;13.456;2023-03-08T07:19:42;1.00;74.70
70079;DHT22;57451;52.496;13.456;2023-03-08T07:22:09;1.10;74.90
70079;DHT22;57451;52.496;13.456;2023-03-08T07:24:38;1.20;74.70
70079;DHT22;57451;52.496;13.456;2023-03-08T07:27:06;1.30;74.20
70079;DHT22;57451;52.496;13.456;2023-03-08T07:29:33;1.30;74.10
70079;DHT22;57451;52.496;13.456;2023-03-08T07:32:01;1.40;73.80
70079;DHT22;57451;52.496;13.456;2023-03-08T07:34:29;1.50;73.60
70079;DHT22;57451;52.496;13.456;2023-03-08T07:36:56;1.70;73.60
70079;DHT22;57451;52.496;13.456;2023-03-08T07:39:23;1.80;73.60
70079;DHT22;57451;52.496;13.456;2023-03-08T07:41:51;1.90;73.40
70079;DHT22;57451;52.496;13.456;2023-03-08T07:44:18;2.00;73.00
70079;DHT22;57451;52.496;13.456;2023-03-08T07:46:45;2.10;72.20
70079;DHT22;57451;52.496;13.456;2023-03-08T07:49:14;2.20;72.20
70079;DHT22;57451;52.496;13.456;2023-03-08T07:51:41;2.40;72.00
70079;DHT22;57451;52.496;13.456;2023-03-08T07:54:10;2.50;72.40
70079;DHT22;57451;52.496;13.456;2023-03-08T07:56:37;2.60;72.30
70079;DHT22;57451;52.496;13.456;2023-03-08T07:59:05;2.80;71.20
70079;DHT22;57451;52.496;13.456;2023-03-08T08:01:32;2.90;71.10
70079;DHT22;57451;52.496;13.456;2023-03-08T08:03:59;3.10;70.50
70079;DHT22;57451;52.496;13.456;2023-03-08T08:06:28;3.20;69.50
70079;DHT22;57451;52.496;13.456;2023-03-08T08:08:56;3.30;68.50
70079;DHT22;57451;52.496;13.456;2023-03-08T08:11:23;3.50;67.60
70079;DHT22;57451;52.496;13.456;2023-03-08T08:13:50;3.60;66.90
70079;DHT22;57451;52.496;13.456;2023-03-08T08:16:18;3.70;66.90
70079;DHT22;57451;52.496;13.456;2023-03-08T08:18:45;3.90;64.90
70079;DHT22;57451;52.496;13.456;2023-03-08T08:21:14;3.90;64.90
70079;DHT22;57451;52.496;13.456;2023-03-08T08:23:43;4.10;64.90
70079;DHT22;57451;52.496;13.456;2023-03-08T08:26:12;4.20;64.90
70079;DHT22;57451;52.496;13.456;2023-03-08T08:28:41;4.20;64.50
70079;DHT22;57451;52.496;13.456;2023-03-08T08:31:10;4.20;63.60
70079;DHT22;57451;52.496;13.456;2023-03-08T08:33:38;4.30;63.10
70079;DHT22;57451;52.496;13.456;2023-03-08T08:36:07;4.40;63.10
70079;DHT22;57451;52.496;13.456;2023-03-08T08:38:34;4.50;63.30
70079;DHT22;57451;52.496;13.456;2023-03-08T08:41:06;4.60;62.30
70079;DHT22;57451;52.496;13.456;2023-03-08T08:43:34;4.60;62.90
70079;DHT22;57451;52.496;13.456;2023-03-08T08:46:03;4.70;62.30
70079;DHT22;57451;52.496;13.456;2023-03-08T08:48:31;4.80;62.60
70079;DHT22;57451;52.496;13.456;2023-03-08T08:51:03;5.00;62.70
70079;DHT22;57451;52.496;13.456;2023-03-08T08:53:30;5.10;61.80
70079;DHT22;57451;52.496;13.456;2023-03-08T08:55:57;5.30;61.60
70079;DHT22;57451;52.496;13.456;2023-03-08T08:58:26;5.50;61.70
70079;DHT22;57451;52.496;13.456;2023-03-08T09:00:53;5.70;62.00
70079;DHT22;57451;52.496;13.456;2023-03-08T09:03:20;5.80;59.70
70079;DHT22;57451;52.496;13.456;2023-03-08T09:05:48;5.90;59.30
70079;DHT22;57451;52.496;13.456;2023-03-08T09:08:15;6.20;58.40
70079;DHT22;57451;52.496;13.456;2023-03-08T09:10:42;6.30;56.40
70079;DHT22;57451;52.496;13.456;2023-03-08T09:13:10;6.30;55.90
70079;DHT22;57451;52.496;13.456;2023-03-08T09:15:38;6.30;55.00
70079;DHT22;57451;52.496;13.456;2023-03-08T09:18:06;6.30;55.80
70079;DHT22;57451;52.496;13.456;2023-03-08T09:20:33;6.50;57.40
70079;DHT22;57451;52.496;13.456;2023-03-08T09:23:00;6.70;54.80
70079;DHT22;57451;52.496;13.456;2023-03-08T09:25:27;6.80;54.30
70079;DHT22;57451;52.496;13.456;2023-03-08T09:27:55;6.90;55.60
70079;DHT22;57451;52.496;13.456;2023-03-08T09:30:22;6.80;52.70
70079;DHT22;57451;52.496;13.456;2023-03-08T09:32:50;6.60;54.00
70079;DHT22;57451;52.496;13.456;2023-03-08T09:35:18;6.70;54.20
70079;DHT22;57451;52.496;13.456;2023-03-08T09:37:45;6.70;52.80
70079;DHT22;57451;52.496;13.456;2023-03-08T09:40:17;6.60;53.80
70079;DHT22;57451;52.496;13.456;2023-03-08T09:42:46;6.60;53.80
70079;DHT22;57451;52.496;13.456;2023-03-08T09:45:18;6.50;53.80
70079;DHT22;57451;52.496;13.456;2023-03-08T09:47:52;6.50;54.20
70079;DHT22;57451;52.496;13.456;2023-03-08T09:50:34;6.40;53.50
70079;DHT22;57451;52.496;13.456;2023-03-08T09:53:09;6.50;55.00
70079;DHT22;57451;52.496;13.456;2023-03-08T09:55:43;6.60;55.40
70079;DHT22;57451;52.496;13.456;2023-03-08T09:58:18;6.60;53.50
70079;DHT22;57451;52.496;13.456;2023-03-08T10:00:49;6.50;53.70
70079;DHT22;57451;52.496;13.456;2023-03-08T10:06:17;6.50;55.60
70079;DHT22;57451;52.496;13.456;2023-03-08T10:08:51;6.70;55.20
70079;DHT22;57451;52.496;13.456;2023-03-08T10:11:24;6.70;53.30
70079;DHT22;57451;52.496;13.456;2023-03-08T10:13:57;6.70;54.00
70079;DHT22;57451;52.496;13.456;2023-03-08T10:16:28;6.90;53.00
70079;DHT22;57451;52.496;13.456;2023-03-08T10:19:02;7.10;53.10
70079;DHT22;57451;52.496;13.456;2023-03-08T10:21:32;7.10;51.50
70079;DHT22;57451;52.496;13.456;2023-03-08T10:24:13;7.10;52.20
70079;DHT22;57451;52.496;13.456;2023-03-08T10:26:41;7.20;50.90
70079;DHT22;57451;52.496;13.456;2023-03-08T10:29:10;7.30;50.70
70079;DHT22;57451;52.496;13.456;2023-03-08T10:31:38;7.30;51.40
70079;DHT22;57451;52.496;13.456;2023-03-08T10:34:19;7.30;49.20
70079;DHT22;57451;52.496;13.456;2023-03-08T10:36:49;7.30;49.40
70079;DHT22;57451;52.496;13.456;2023-03-08T10:39:17;7.40;50.20
70079;DHT22;57451;52.496;13.456;2023-03-08T10:41:47;7.40;48.50
70079;DHT22;57451;52.496;13.456;2023-03-08T10:44:29;7.30;50.60
70079;DHT22;57451;52.496;13.456;2023-03-08T10:46:57;7.40;50.00
70079;DHT22;57451;52.496;13.456;2023-03-08T10:49:25;7.40;50.30
70079;DHT22;57451;52.496;13.456;2023-03-08T10:51:56;7.30;49.30
70079;DHT22;57451;52.496;13.456;2023-03-08T10:54:24;7.20;49.40
70079;DHT22;57451;52.496;13.456;2023-03-08T10:56:54;7.10;49.50
70079;DHT22;57451;52.496;13.456;2023-03-08T10:59:23;7.00;49.10
70079;DHT22;57451;52.496;13.456;2023-03-08T11:01:59;6.90;49.90
70079;DHT22;57451;52.496;13.456;2023-03-08T11:04:29;6.70;48.60
70079;DHT22;57451;52.496;13.456;2023-03-08T11:06:57;6.60;49.30
70079;DHT22;57451;52.496;13.456;2023-03-08T11:09:26;6.70;51.80
70079;DHT22;57451;52.496;13.456;2023-03-08T11:11:54;6.70;50.40
70079;DHT22;57451;52.496;13.456;2023-03-08T11:14:22;6.70;51.30
70079;DHT22;57451;52.496;13.456;2023-03-08T11:17:00;6.80;52.10
70079;DHT22;57451;52.496;13.456;2023-03-08T11:19:40;7.00;51.10
70079;DHT22;57451;52.496;13.456;2023-03-08T11:22:19;7.10;51.40
70079;DHT22;57451;52.496;13.456;2023-03-08T11:25:02;7.20;51.50
70079;DHT22;57451;52.496;13.456;2023-03-08T11:27:51;7.20;50.70
70079;DHT22;57451;52.496;13.456;2023-03-08T11:30:27;7.20;49.70
70079;DHT22;57451;52.496;13.456;2023-03-08T11:33:07;7.10;49.60
70079;DHT22;57451;52.496;13.456;2023-03-08T11:35:44;7.30;51.20
70079;DHT22;57451;52.496;13.456;2023-03-08T11:38:17;7.20;49.20
70079;DHT22;57451;52.496;13.456;2023-03-08T11:40:53;7.20;49.40
70079;DHT22;57451;52.496;13.456;2023-03-08T11:43:34;7.10;48.60
70079;DHT22;57451;52.496;13.456;2023-03-08T11:46:09;7.00;48.80
70079;DHT22;57451;52.496;13.456;2023-03-08T11:49:01;7.00;50.00
70079;DHT22;57451;52.496;13.456;2023-03-08T11:51:43;6.90;49.30
70079;DHT22;57451;52.496;13.456;2023-03-08T11:54:18;6.80;49.30
70079;DHT22;57451;52.496;13.456;2023-03-08T11:56:50;6.70;48.80
70079;DHT22;57451;52.496;13.456;2023-03-08T11:59:25;6.60;48.90
70079;DHT22;57451;52.496;13.456;2023-03-08T12:01:58;6.60;49.70
70079;DHT22;57451;52.496;13.456;2023-03-08T12:04:32;6.50;50.10
70079;DHT22;57451;52.496;13.456;2023-03-08T12:07:07;6.30;49.70
70079;DHT22;57451;52.496;13.456;2023-03-08T12:09:50;6.30;50.00
70079;DHT22;57451;52.496;13.456;2023-03-08T12:12:25;6.30;50.40
70079;DHT22;57451;52.496;13.456;2023-03-08T12:14:56;6.20;50.10
70079;DHT22;57451;52.496;13.456;2023-03-08T12:17:30;6.30;51.00
70079;DHT22;57451;52.496;13.456;2023-03-08T12:19:59;6.30;50.60
70079;DHT22;57451;52.496;13.456;2023-03-08T12:22:40;6.30;50.60
70079;DHT22;57451;52.496;13.456;2023-03-08T12:25:16;6.30;51.50
70079;DHT22;57451;52.496;13.456;2023-03-08T12:27:50;6.30;50.70
70079;DHT22;57451;52.496;13.456;2023-03-08T12:30:25;6.40;50.80
70079;DHT22;57451;52.496;13.456;2023-03-08T12:32:56;6.40;49.80
70079;DHT22;57451;52.496;13.456;2023-03-08T12:35:29;6.40;50.50
70079;DHT22;57451;52.496;13.456;2023-03-08T12:38:00;6.40;49.90
70079;DHT22;57451;52.496;13.456;2023-03-08T12:40:37;6.20;50.40
70079;DHT22;57451;52.496;13.456;2023-03-08T12:43:10;6.20;49.10
70079;DHT22;57451;52.496;13.456;2023-03-08T12:45:38;6.20;49.50
70079;DHT22;57451;52.496;13.456;2023-03-08T12:48:19;6.10;50.00
70079;DHT22;57451;52.496;13.456;2023-03-08T12:50:56;6.10;51.20
70079;DHT22;57451;52.496;13.456;2023-03-08T12:53:36;6.10;50.60
70079;DHT22;57451;52.496;13.456;2023-03-08T12:56:14;6.00;51.40
70079;DHT22;57451;52.496;13.456;2023-03-08T12:58:48;6.00;51.30
70079;DHT22;57451;52.496;13.456;2023-03-08T13:01:31;6.00;51.70
70079;DHT22;57451;52.496;13.456;2023-03-08T13:03:59;6.10;50.50
70079;DHT22;57451;52.496;13.456;2023-03-08T13:06:55;6.00;51.40
70079;DHT22;57451;52.496;13.456;2023-03-08T13:09:30;6.00;50.80
70079;DHT22;57451;52.496;13.456;2023-03-08T13:12:10;5.90;51.60
70079;DHT22;57451;52.496;13.456;2023-03-08T13:14:40;5.80;51.80
70079;DHT22;57451;52.496;13.456;2023-03-08T13:17:33;5.80;51.70
70079;DHT22;57451;52.496;13.456;2023-03-08T13:20:08;5.80;51.30
70079;DHT22;57451;52.496;13.456;2023-03-08T13:22:44;5.80;52.10
70079;DHT22;57451;52.496;13.456;2023-03-08T13:25:22;5.70;51.80
70079;DHT22;57451;52.496;13.456;2023-03-08T13:27:59;5.70;51.90
70079;DHT22;57451;52.496;13.456;2023-03-08T13:30:31;5.60;52.70
70079;DHT22;57451;52.496;13.456;2023-03-08T13:32:59;5.50;52.80
70079;DHT22;57451;52.496;13.456;2023-03-08T13:35:30;5.50;52.90
70079;DHT22;57451;52.496;13.456;2023-03-08T13:37:59;5.40;53.80
70079;DHT22;57451;52.496;13.456;2023-03-08T13:40:28;5.30;54.30
70079;DHT22;57451;52.496;13.456;2023-03-08T13:42:57;5.40;54.90
70079;DHT22;57451;52.496;13.456;2023-03-08T13:45:25;5.40;54.50
70079;DHT22;57451;52.496;13.456;2023-03-08T13:47:53;5.40;54.30
70079;DHT22;57451;52.496;13.456;2023-03-08T13:50:26;5.30;54.30
70079;DHT22;57451;52.496;13.456;2023-03-08T13:52:55;5.10;55.40
70079;DHT22;57451;52.496;13.456;2023-03-08T13:55:28;5.10;56.40
70079;DHT22;57451;52.496;13.456;2023-03-08T13:57:58;5.10;56.90
70079;DHT22;57451;52.496;13.456;2023-03-08T14:00:28;5.10;58.40
70079;DHT22;57451;52.496;13.456;2023-03-08T14:02:58;5.00;59.20
70079;DHT22;57451;52.496;13.456;2023-03-08T14:05:26;5.00;59.80
70079;DHT22;57451;52.496;13.456;2023-03-08T14:07:56;5.00;60.60
70079;DHT22;57451;52.496;13.456;2023-03-08T14:10:30;4.90;60.80
70079;DHT22;57451;52.496;13.456;2023-03-08T14:13:01;4.90;61.50
70079;DHT22;57451;52.496;13.456;2023-03-08T14:15:29;4.80;62.00
70079;DHT22;57451;52.496;13.456;2023-03-08T14:17:58;4.70;62.70
70079;DHT22;57451;52.496;13.456;2023-03-08T14:20:26;4.70;63.30
70079;DHT22;57451;52.496;13.456;2023-03-08T14:22:54;4.60;63.90
70079;DHT22;57451;52.496;13.456;2023-03-08T14:25:25;4.60;64.20
70079;DHT22;57451;52.496;13.456;2023-03-08T14:27:54;4.60;64.10
70079;DHT22;57451;52.496;13.456;2023-03-08T14:30:24;4.50;64.60
70079;DHT22;57451;52.496;13.456;2023-03-08T14:33:03;4.50;65.20
70079;DHT22;57451;52.496;13.456;2023-03-08T14:35:35;4.40;65.60
70079;DHT22;57451;52.496;13.456;2023-03-08T14:38:12;4.30;66.10
70079;DHT22;57451;52.496;13.456;2023-03-08T14:40:45;4.20;66.70
70079;DHT22;57451;52.496;13.456;2023-03-08T14:43:17;4.10;67.00
70079;DHT22;57451;52.496;13.456;2023-03-08T14:45:50;4.10;67.50
70079;DHT22;57451;52.496;13.456;2023-03-08T14:48:22;4.20;67.30
70079;DHT22;57451;52.496;13.456;2023-03-08T14:50:52;4.30;67.20
70079;DHT22;57451;52.496;13.456;2023-03-08T14:53:29;4.20;67.60
70079;DHT22;57451;52.496;13.456;2023-03-08T14:55:57;4.20;67.70
70079;DHT22;57451;52.496;13.456;2023-03-08T14:58:29;4.20;67.80
70079;DHT22;57451;52.496;13.456;2023-03-08T15:00:58;4.20;67.90
70079;DHT22;57451;52.496;13.456;2023-03-08T15:03:27;4.20;67.80
70079;DHT22;57451;52.496;13.456;2023-03-08T15:05:55;4.20;67.70
70079;DHT22;57451;52.496;13.456;2023-03-08T15:08:23;4.20;68.00
70079;DHT22;57451;52.496;13.456;2023-03-08T15:10:51;4.20;68.20
70079;DHT22;57451;52.496;13.456;2023-03-08T15:13:20;4.20;68.30
70079;DHT22;57451;52.496;13.456;2023-03-08T15:15:49;4.10;68.50
70079;DHT22;57451;52.496;13.456;2023-03-08T15:18:17;4.10;68.60
70079;DHT22;57451;52.496;13.456;2023-03-08T15:20:47;4.10;68.80
70079;DHT22;57451;52.496;13.456;2023-03-08T15:23:19;4.10;68.80
70079;DHT22;57451;52.496;13.456;2023-03-08T15:25:47;4.00;68.70
70079;DHT22;57451;52.496;13.456;2023-03-08T15:28:16;4.00;68.90
70079;DHT22;57451;52.496;13.456;2023-03-08T15:30:44;4.00;69.00
70079;DHT22;57451;52.496;13.456;2023-03-08T15:33:13;4.00;69.30
70079;DHT22;57451;52.496;13.456;2023-03-08T15:35:41;3.90;69.40
70079;DHT22;57451;52.496;13.456;2023-03-08T15:38:11;3.80;70.00
70079;DHT22;57451;52.496;13.456;2023-03-08T15:40:40;3.80;70.20
70079;DHT22;57451;52.496;13.456;2023-03-08T15:43:08;3.80;70.00
70079;DHT22;57451;52.496;13.456;2023-03-08T15:45:35;3.80;70.20
70079;DHT22;57451;52.496;13.456;2023-03-08T15:48:04;3.70;70.40
70079;DHT22;57451;52.496;13.456;2023-03-08T15:50:34;3.70;70.30
70079;DHT22;57451;52.496;13.456;2023-03-08T15:53:02;3.60;70.60